createdAt,value
2023-04-08T00:03:51.045Z,100019.48
2023-04-08T00:13:24.799Z,100018.22
2023-04-08T00:22:57.355Z,100024.83
2023-04-08T00:32:33.276Z,100026.88
2023-04-08T00:42:07.303Z,100024.44
2023-04-08T00:51:39.716Z,100023.55
2023-04-08T01:01:13.717Z,100031.16
2023-04-08T01:10:47.564Z,100024.09
2023-04-08T01:20:22.909Z,100029.72
2023-04-08T01:29:55.626Z,100025.11
2023-04-08T01:39:29.796Z,100029.88
2023-04-08T01:49:03.800Z,100021.20
2023-04-08T01:58:37.513Z,100023.32
2023-04-08T02:08:11.457Z,100020.71
2023-04-08T02:17:47.517Z,100027.02
2023-04-08T02:27:19.506Z,100024.70
2023-04-08T02:36:53.639Z,100031.69
2023-04-08T02:46:29.290Z,100031.57
2023-04-08T02:56:01.827Z,100029.73
2023-04-08T03:05:36.104Z,100030.28
2023-04-08T03:15:11.489Z,100037.59
2023-04-08T03:24:43.029Z,100042.59
2023-04-08T03:34:18.526Z,100055.13
2023-04-08T03:43:50.465Z,100054.78
2023-04-08T03:53:25.435Z,100055.22
2023-04-08T04:02:57.526Z,100061.34
2023-04-08T04:12:31.336Z,100065.39
2023-04-08T04:22:05.232Z,100072.29
2023-04-08T04:31:39.197Z,100075.56
2023-04-08T04:41:12.777Z,100086.91
2023-04-08T04:50:46.598Z,100089.56
2023-04-08T05:00:19.457Z,100097.02
2023-04-08T05:09:51.499Z,100104.44
2023-04-08T05:19:25.076Z,100105.88
2023-04-08T05:29:00.805Z,100116.03
2023-04-08T05:38:33.986Z,100120.97
2023-04-08T05:48:07.519Z,100125.27
2023-04-08T05:57:39.291Z,100140.91
2023-04-08T06:07:15.221Z,100145.33
2023-04-08T06:16:46.814Z,100150.28
2023-04-08T06:26:21.051Z,100159.60
2023-04-08T06:35:55.640Z,100166.84
2023-04-08T06:45:31.841Z,100169.35
2023-04-08T06:46:34.088Z,100170.83
2023-04-08T06:56:07.506Z,100178.46
2023-04-08T07:05:43.475Z,100176.20
2023-04-08T07:15:20.081Z,100179.17
2023-04-08T07:16:23.921Z,100182.13
2023-04-08T07:17:26.211Z,100181.66
2023-04-08T07:27:00.791Z,100188.02
2023-04-08T07:36:33.473Z,100197.03
2023-04-08T07:37:35.838Z,100207.86
2023-04-08T07:38:43.855Z,100205.68
2023-04-08T07:48:11.945Z,100208.59
2023-04-08T07:49:14.286Z,100208.30
2023-04-08T07:50:16.693Z,100207.02
2023-04-08T07:51:20.094Z,100211.79
2023-04-08T07:52:21.494Z,100213.52
2023-04-08T07:53:23.979Z,100213.95
2023-04-08T07:54:27.900Z,100213.11
2023-04-08T07:55:31.785Z,100212.80
2023-04-08T07:56:35.081Z,100212.64
2023-04-08T07:57:39.043Z,100213.09
2023-04-08T07:58:41.540Z,100211.63
2023-04-08T07:59:43.774Z,100214.42
2023-04-08T08:00:46.161Z,100214.42
2023-04-08T08:01:50.366Z,100219.27
2023-04-08T08:02:52.917Z,100219.05
2023-04-08T08:03:55.526Z,100220.20
2023-04-08T08:04:57.604Z,100223.84
2023-04-08T08:05:59.959Z,100222.07
2023-04-08T08:07:02.320Z,100226.40
2023-04-08T08:08:04.722Z,100226.77
2023-04-08T08:09:08.752Z,100227.13
2023-04-08T08:10:11.041Z,100229.03
2023-04-08T08:11:13.504Z,100224.44
2023-04-08T08:12:17.479Z,100228.51
2023-04-08T08:13:19.803Z,100225.86
2023-04-08T08:14:25.186Z,100227.15
2023-04-08T08:15:27.371Z,100228.92
2023-04-08T08:16:29.824Z,100234.80
2023-04-08T08:17:32.246Z,100232.38
2023-04-08T08:18:36.231Z,100236.92
2023-04-08T08:19:38.849Z,100241.88
2023-04-08T08:20:40.927Z,100239.97
2023-04-08T08:21:45.064Z,100240.48
2023-04-08T08:22:56.584Z,100242.09
2023-04-08T08:23:49.950Z,100239.84
2023-04-08T08:24:53.824Z,100242.25
2023-04-08T08:25:56.129Z,100241.30
2023-04-08T08:27:00.203Z,100245.91
2023-04-08T08:28:02.522Z,100238.38
2023-04-08T08:29:04.944Z,100240.72
2023-04-08T08:30:07.278Z,100243.84
2023-04-08T08:31:11.376Z,100246.04
2023-04-08T08:32:13.670Z,100243.72
2023-04-08T08:33:16.125Z,100242.50
2023-04-08T08:34:18.594Z,100242.30
2023-04-08T08:35:21.063Z,100245.45
2023-04-08T08:36:23.604Z,100241.08
2023-04-08T08:37:25.870Z,100246.25
2023-04-08T08:38:29.290Z,100245.16
2023-04-08T08:39:33.191Z,100247.79
2023-04-08T08:40:35.699Z,100248.98
2023-04-08T08:41:39.499Z,100252.80
2023-04-08T08:42:41.828Z,100250.59
2023-04-08T08:43:44.237Z,100251.38
2023-04-08T08:44:48.166Z,100252.17
2023-04-08T08:45:50.481Z,100257.11
2023-04-08T08:46:52.942Z,100253.65
2023-04-08T08:47:57.018Z,100258.34
2023-04-08T08:48:59.296Z,100254.20
2023-04-08T08:50:01.708Z,100253.02
2023-04-08T08:51:04.159Z,100255.31
2023-04-08T08:52:06.613Z,100262.08
2023-04-08T08:53:10.596Z,100255.34
2023-04-08T08:54:12.878Z,100254.41
2023-04-08T08:55:32.888Z,100255.86
2023-04-08T08:56:19.339Z,100253.84
2023-04-08T08:57:23.307Z,100248.31
2023-04-08T08:58:25.543Z,100257.03
2023-04-08T08:59:27.979Z,100258.83
2023-04-08T09:00:31.324Z,100259.16
2023-04-08T09:01:33.177Z,100263.09
2023-04-08T09:02:37.099Z,100266.98
2023-04-08T09:03:39.473Z,100263.86
2023-04-08T09:04:41.800Z,100260.08
2023-04-08T09:05:44.194Z,100261.92
2023-04-08T09:06:48.131Z,100260.83
2023-04-08T09:07:50.452Z,100261.91
2023-04-08T09:08:54.489Z,100267.94
2023-04-08T09:09:58.390Z,100268.52
2023-04-08T09:11:00.678Z,100271.03
2023-04-08T09:12:04.721Z,100267.71
2023-04-08T09:13:08.648Z,100268.88
2023-04-08T09:14:10.870Z,100267.28
2023-04-08T09:15:14.854Z,100265.78
2023-04-08T09:16:19.869Z,100272.94
2023-04-08T09:17:21.995Z,100262.67
2023-04-08T09:18:24.441Z,100267.63
2023-04-08T09:19:28.523Z,100267.45
2023-04-08T09:20:30.720Z,100264.59
2023-04-08T09:21:33.196Z,100266.94
2023-04-08T09:22:35.634Z,100270.12
2023-04-08T09:23:38.031Z,100273.23
2023-04-08T09:24:42.121Z,100274.26
2023-04-08T09:25:44.423Z,100272.25
2023-04-08T09:26:46.848Z,100271.41
2023-04-08T09:27:49.343Z,100276.30
2023-04-08T09:28:51.732Z,100275.09
2023-04-08T09:29:54.158Z,100271.34
2023-04-08T09:30:56.569Z,100272.16
2023-04-08T09:31:59.190Z,100270.48
2023-04-08T09:33:03.146Z,100276.75
2023-04-08T09:34:05.403Z,100277.27
2023-04-08T09:35:09.493Z,100278.27
2023-04-08T09:36:11.745Z,100277.27
2023-04-08T09:37:15.754Z,100281.33
2023-04-08T09:38:18.138Z,100279.36
2023-04-08T09:39:20.512Z,100279.16
2023-04-08T09:40:24.568Z,100281.06
2023-04-08T09:41:26.948Z,100279.34
2023-04-08T09:42:29.338Z,100284.45
2023-04-08T09:43:31.770Z,100279.41
2023-04-08T09:44:34.199Z,100281.63
2023-04-08T09:45:36.672Z,100286.94
2023-04-08T09:46:39.021Z,100280.64
2023-04-08T09:47:41.477Z,100277.93
2023-04-08T09:48:45.482Z,100279.13
2023-04-08T09:49:49.348Z,100283.81
2023-04-08T09:50:51.681Z,100288.42
2023-04-08T09:51:54.087Z,100281.79
2023-04-08T09:52:58.197Z,100283.81
2023-04-08T09:54:00.453Z,100287.72
2023-04-08T09:55:02.926Z,100285.77
2023-04-08T09:56:05.440Z,100287.08
2023-04-08T09:57:07.857Z,100286.95
2023-04-08T09:58:10.312Z,100291.49
2023-04-08T09:59:12.746Z,100285.64
2023-04-08T10:00:15.136Z,100287.98
2023-04-08T10:01:19.307Z,100287.09
2023-04-08T10:02:21.705Z,100284.88
2023-04-08T10:03:25.673Z,100286.38
2023-04-08T10:04:28.087Z,100282.01
2023-04-08T10:05:31.391Z,100285.33
2023-04-08T10:06:33.743Z,100286.55
2023-04-08T10:07:36.191Z,100285.97
2023-04-08T10:08:40.197Z,100286.30
2023-04-08T10:09:44.155Z,100288.16
2023-04-08T10:10:47.904Z,100286.90
2023-04-08T10:11:48.914Z,100280.66
2023-04-08T10:12:51.366Z,100279.72
2023-04-08T10:13:53.770Z,100283.18
2023-04-08T10:14:56.192Z,100283.62
2023-04-08T10:16:00.247Z,100283.04
2023-04-08T10:17:04.293Z,100288.84
2023-04-08T10:18:08.284Z,100287.00
2023-04-08T10:19:11.979Z,100285.14
2023-04-08T10:20:14.310Z,100289.40
2023-04-08T10:21:16.768Z,100286.94
2023-04-08T10:22:19.265Z,100287.76
2023-04-08T10:23:21.647Z,100284.59
2023-04-08T10:24:24.041Z,100285.69
2023-04-08T10:25:28.106Z,100279.23
2023-04-08T10:26:32.283Z,100285.71
2023-04-08T10:27:34.630Z,100284.17
2023-04-08T10:28:37.033Z,100286.45
2023-04-08T10:29:39.459Z,100281.46
2023-04-08T10:30:41.958Z,100286.66
2023-04-08T10:31:44.574Z,100283.55
2023-04-08T10:32:46.931Z,100283.67
2023-04-08T10:33:49.540Z,100283.83
2023-04-08T10:34:53.496Z,100283.73
2023-04-08T10:35:55.893Z,100282.41
2023-04-08T10:36:58.301Z,100283.29
2023-04-08T10:38:00.709Z,100275.69
2023-04-08T10:39:04.778Z,100277.03
2023-04-08T10:40:08.721Z,100277.66
2023-04-08T10:41:10.995Z,100280.86
2023-04-08T10:42:15.022Z,100280.72
2023-04-08T10:43:17.368Z,100281.98
2023-04-08T10:44:21.387Z,100284.00
2023-04-08T10:45:23.688Z,100286.20
2023-04-08T10:46:27.791Z,100286.19
2023-04-08T10:47:30.052Z,100281.33
2023-04-08T10:48:32.491Z,100284.58
2023-04-08T10:49:36.492Z,100281.61
2023-04-08T10:50:40.372Z,100277.05
2023-04-08T10:51:42.679Z,100282.67
2023-04-08T10:52:46.761Z,100281.30
2023-04-08T10:53:49.121Z,100283.45
2023-04-08T10:54:51.472Z,100278.89
2023-04-08T10:55:55.544Z,100280.73
2023-04-08T10:56:57.876Z,100275.86
2023-04-08T10:58:00.348Z,100276.55
2023-04-08T10:59:04.430Z,100280.59
2023-04-08T11:00:06.759Z,100276.33
2023-04-08T11:01:10.768Z,100276.70
2023-04-08T11:02:14.757Z,100276.35
2023-04-08T11:03:18.686Z,100278.94
2023-04-08T11:04:20.938Z,100279.30
2023-04-08T11:05:24.898Z,100283.16
2023-04-08T11:06:27.274Z,100282.21
2023-04-08T11:07:29.701Z,100282.48
2023-04-08T11:08:33.183Z,100275.98
2023-04-08T11:09:35.509Z,100280.30
2023-04-08T11:10:37.979Z,100284.09
2023-04-08T11:11:41.998Z,100276.92
2023-04-08T11:12:44.337Z,100280.83
2023-04-08T11:13:53.087Z,100274.99
2023-04-08T11:14:50.942Z,100275.09
2023-04-08T11:15:53.269Z,100274.96
2023-04-08T11:16:55.697Z,100279.66
2023-04-08T11:17:58.235Z,100277.09
2023-04-08T11:19:00.624Z,100275.78
2023-04-08T11:20:03.047Z,100274.02
2023-04-08T11:21:05.526Z,100276.09
2023-04-08T11:22:08.060Z,100277.92
2023-04-08T11:23:11.514Z,100275.70
2023-04-08T11:24:14.863Z,100280.25
2023-04-08T11:25:17.232Z,100271.97
2023-04-08T11:26:21.301Z,100275.05
2023-04-08T11:27:23.611Z,100277.84
2023-04-08T11:28:26.063Z,100269.88
2023-04-08T11:29:30.205Z,100271.26
2023-04-08T11:30:32.449Z,100273.53
2023-04-08T11:31:34.968Z,100274.02
2023-04-08T11:32:38.940Z,100276.64
2023-04-08T11:33:41.272Z,100274.94
2023-04-08T11:34:43.712Z,100275.16
2023-04-08T11:35:46.190Z,100277.55
2023-04-08T11:36:48.619Z,100277.84
2023-04-08T11:37:51.094Z,100272.99
2023-04-08T11:38:53.536Z,100274.09
2023-04-08T11:39:57.581Z,100275.53
2023-04-08T11:41:01.461Z,100274.13
2023-04-08T11:42:05.431Z,100274.41
2023-04-08T11:43:07.802Z,100269.06
2023-04-08T11:44:11.833Z,100269.04
2023-04-08T11:45:14.197Z,100271.04
2023-04-08T11:46:17.649Z,100265.67
2023-04-08T11:47:19.951Z,100266.42
2023-04-08T11:48:24.070Z,100267.92
2023-04-08T11:49:26.342Z,100265.64
2023-04-08T11:50:28.817Z,100266.63
2023-04-08T11:51:31.267Z,100266.20
2023-04-08T11:52:33.758Z,100262.73
2023-04-08T11:53:37.814Z,100264.66
2023-04-08T11:54:40.117Z,100262.47
2023-04-08T11:55:42.560Z,100260.05
2023-04-08T11:56:45.046Z,100259.61
2023-04-08T11:57:47.494Z,100256.18
2023-04-08T11:58:49.963Z,100257.09
2023-04-08T11:59:56.208Z,100254.05
2023-04-08T12:01:00.190Z,100255.97
2023-04-08T12:02:04.153Z,100252.89
2023-04-08T12:03:08.149Z,100254.54
2023-04-08T12:04:10.688Z,100252.06
2023-04-08T12:05:12.869Z,100254.44
2023-04-08T12:06:15.377Z,100250.81
2023-04-08T12:07:17.813Z,100250.77
2023-04-08T12:08:22.827Z,100251.84
2023-04-08T12:09:26.739Z,100257.55
2023-04-08T12:10:30.660Z,100256.28
2023-04-08T12:11:34.533Z,100256.67
2023-04-08T12:12:38.480Z,100252.22
2023-04-08T12:13:42.392Z,100251.67
2023-04-08T12:14:48.496Z,100249.50
2023-04-08T12:15:50.808Z,100248.67
2023-04-08T12:16:53.248Z,100248.87
2023-04-08T12:17:55.774Z,100245.16
2023-04-08T12:18:58.142Z,100247.11
2023-04-08T12:20:02.188Z,100237.13
2023-04-08T12:21:04.478Z,100232.78
2023-04-08T12:22:06.917Z,100240.73
2023-04-08T12:23:10.926Z,100239.51
2023-04-08T12:24:13.331Z,100239.31
2023-04-08T12:25:17.356Z,100244.22
2023-04-08T12:26:19.723Z,100246.84
2023-04-08T12:27:22.189Z,100242.17
2023-04-08T12:28:24.702Z,100246.69
2023-04-08T12:29:27.119Z,100247.45
2023-04-08T12:30:31.136Z,100249.58
2023-04-08T12:31:35.128Z,100248.02
2023-04-08T12:32:37.484Z,100243.99
2023-04-08T12:33:39.967Z,100242.44
2023-04-08T12:34:42.452Z,100243.03
2023-04-08T12:35:44.962Z,100242.11
2023-04-08T12:36:48.956Z,100241.01
2023-04-08T12:37:51.228Z,100240.56
2023-04-08T12:38:53.696Z,100241.20
2023-04-08T12:39:59.922Z,100243.73
2023-04-08T12:41:03.720Z,100244.57
2023-04-08T12:42:06.050Z,100242.62
2023-04-08T12:43:10.088Z,100245.59
2023-04-08T12:44:12.500Z,100246.10
2023-04-08T12:45:16.605Z,100247.28
2023-04-08T12:46:20.582Z,100246.78
2023-04-08T12:47:26.076Z,100242.81
2023-04-08T12:48:26.865Z,100239.95
2023-04-08T12:49:29.325Z,100244.53
2023-04-08T12:50:33.401Z,100240.76
2023-04-08T12:51:35.782Z,100241.09
2023-04-08T12:52:38.238Z,100246.70
2023-04-08T12:53:42.246Z,100245.85
2023-04-08T12:54:44.636Z,100239.23
2023-04-08T12:55:48.683Z,100237.69
2023-04-08T12:56:50.589Z,100241.13
2023-04-08T12:57:54.031Z,100239.15
2023-04-08T12:58:57.365Z,100247.17
2023-04-08T12:59:59.706Z,100247.54
2023-04-08T13:01:02.356Z,100240.33
2023-04-08T13:02:04.776Z,100237.75
2023-04-08T13:03:08.777Z,100234.78
2023-04-08T13:04:11.173Z,100242.30
2023-04-08T13:05:13.571Z,100237.12
2023-04-08T13:06:17.623Z,100235.86
2023-04-08T13:07:20.049Z,100246.01
2023-04-08T13:08:25.132Z,100240.53
2023-04-08T13:09:27.404Z,100240.13
2023-04-08T13:10:31.410Z,100243.22
2023-04-08T13:11:35.331Z,100245.98
2023-04-08T13:12:39.286Z,100244.63
2023-04-08T13:13:43.258Z,100249.20
2023-04-08T13:14:47.217Z,100249.70
2023-04-08T13:15:52.109Z,100248.75
2023-04-08T13:16:54.394Z,100250.25
2023-04-08T13:17:58.453Z,100247.69
2023-04-08T13:19:00.778Z,100249.19
2023-04-08T13:20:03.254Z,100248.83
2023-04-08T13:21:07.331Z,100248.05
2023-04-08T13:22:09.783Z,100249.63
2023-04-08T13:23:12.163Z,100245.97
2023-04-08T13:24:14.587Z,100245.94
2023-04-08T13:25:18.620Z,100245.47
2023-04-08T13:26:20.936Z,100244.01
2023-04-08T13:27:23.364Z,100245.02
2023-04-08T13:28:25.829Z,100240.97
2023-04-08T13:29:28.251Z,100243.34
2023-04-08T13:30:30.767Z,100239.86
2023-04-08T13:31:33.255Z,100241.71
2023-04-08T13:32:35.666Z,100250.82
2023-04-08T13:33:39.690Z,100246.23
2023-04-08T13:34:43.577Z,100244.45
2023-04-08T13:35:45.949Z,100247.25
2023-04-08T13:36:49.381Z,100248.05
2023-04-08T13:37:53.320Z,100248.36
2023-04-08T13:38:55.631Z,100249.34
2023-04-08T13:40:00.659Z,100254.00
2023-04-08T13:41:02.978Z,100252.08
2023-04-08T13:42:05.391Z,100254.07
2023-04-08T13:43:09.428Z,100253.75
2023-04-08T13:44:11.738Z,100252.78
2023-04-08T13:45:15.808Z,100256.65
2023-04-08T13:46:18.303Z,100253.20
2023-04-08T13:47:22.211Z,100252.94
2023-04-08T13:48:26.137Z,100252.81
2023-04-08T13:49:30.236Z,100250.53
2023-04-08T13:50:34.189Z,100253.80
2023-04-08T13:51:38.136Z,100253.33
2023-04-08T13:52:40.423Z,100250.91
2023-04-08T13:53:44.478Z,100252.70
2023-04-08T13:54:46.784Z,100253.03
2023-04-08T13:55:50.839Z,100252.61
2023-04-08T13:56:53.157Z,100252.95
2023-04-08T13:57:57.206Z,100251.27
2023-04-08T13:58:59.658Z,100250.42
2023-04-08T14:00:02.103Z,100249.45
2023-04-08T14:01:04.520Z,100251.50
2023-04-08T14:02:07.014Z,100249.98
2023-04-08T14:03:09.471Z,100248.13
2023-04-08T14:04:11.875Z,100247.09
2023-04-08T14:05:15.910Z,100243.66
2023-04-08T14:06:18.209Z,100246.22
2023-04-08T14:07:20.653Z,100243.05
2023-04-08T14:08:23.093Z,100242.56
2023-04-08T14:09:27.140Z,100245.83
2023-04-08T14:10:33.338Z,100243.80
2023-04-08T14:11:37.450Z,100242.80
2023-04-08T14:12:39.614Z,100238.66
2023-04-08T14:13:41.897Z,100245.98
2023-04-08T14:14:45.951Z,100241.35
2023-04-08T14:15:48.256Z,100242.86
2023-04-08T14:16:50.807Z,100238.61
2023-04-08T14:17:53.283Z,100233.80
2023-04-08T14:18:57.372Z,100235.80
2023-04-08T14:19:59.699Z,100230.98
2023-04-08T14:21:04.784Z,100231.30
2023-04-08T14:22:08.651Z,100230.63
2023-04-08T14:23:12.609Z,100234.59
2023-04-08T14:24:14.939Z,100232.78
2023-04-08T14:25:17.370Z,100238.44
2023-04-08T14:26:21.498Z,100231.42
2023-04-08T14:27:25.368Z,100230.64
2023-04-08T14:28:27.715Z,100232.95
2023-04-08T14:29:31.828Z,100228.31
2023-04-08T14:30:35.827Z,100229.80
2023-04-08T14:31:38.125Z,100233.63
2023-04-08T14:32:42.192Z,100227.02
2023-04-08T14:33:44.552Z,100232.61
2023-04-08T14:34:48.661Z,100235.05
2023-04-08T14:35:52.654Z,100231.88
2023-04-08T14:36:55.049Z,100233.47
2023-04-08T14:37:57.493Z,100232.30
2023-04-08T14:39:00.987Z,100229.49
2023-04-08T14:40:05.006Z,100234.33
2023-04-08T14:41:08.911Z,100237.70
2023-04-08T14:42:11.248Z,100232.64
2023-04-08T14:43:13.739Z,100237.56
2023-04-08T14:44:17.845Z,100233.63
2023-04-08T14:45:20.159Z,100230.73
2023-04-08T14:46:25.354Z,100241.62
2023-04-08T14:47:29.190Z,100235.52
2023-04-08T14:48:31.482Z,100234.29
2023-04-08T14:49:33.909Z,100239.10
2023-04-08T14:50:36.361Z,100240.02
2023-04-08T14:51:38.801Z,100238.34
2023-04-08T14:52:41.262Z,100242.69
2023-04-08T14:53:43.752Z,100243.36
2023-04-08T14:54:47.784Z,100238.95
2023-04-08T14:55:50.216Z,100240.63
2023-04-08T14:56:52.643Z,100241.81
2023-04-08T14:57:55.120Z,100240.45
2023-04-08T14:58:57.541Z,100242.03
2023-04-08T14:59:59.928Z,100245.92
2023-04-08T15:01:02.385Z,100245.09
2023-04-08T15:02:04.944Z,100244.19
2023-04-08T15:03:07.473Z,100245.09
2023-04-08T15:04:09.984Z,100246.59
2023-04-08T15:05:12.332Z,100243.83
2023-04-08T15:06:16.402Z,100244.94
2023-04-08T15:07:18.734Z,100245.34
2023-04-08T15:08:21.211Z,100251.08
2023-04-08T15:09:23.658Z,100250.75
2023-04-08T15:10:26.073Z,100252.31
2023-04-08T15:11:28.558Z,100248.12
2023-04-08T15:12:30.998Z,100245.97
2023-04-08T15:13:36.097Z,100244.16
2023-04-08T15:14:38.273Z,100249.47
2023-04-08T15:15:42.354Z,100251.05
2023-04-08T15:16:44.570Z,100251.43
2023-04-08T15:17:47.079Z,100250.90
2023-04-08T15:18:51.227Z,100255.73
2023-04-08T15:19:53.427Z,100255.53
2023-04-08T15:20:57.454Z,100250.62
2023-04-08T15:21:59.824Z,100254.36
2023-04-08T15:23:05.259Z,100253.89
2023-04-08T15:24:09.096Z,100252.98
2023-04-08T15:25:11.483Z,100253.92
2023-04-08T15:26:13.906Z,100251.80
2023-04-08T15:27:16.424Z,100254.33
2023-04-08T15:28:20.425Z,100253.21
2023-04-08T15:29:22.753Z,100253.70
2023-04-08T15:30:26.819Z,100259.09
2023-04-08T15:31:29.157Z,100259.95
2023-04-08T15:32:31.584Z,100258.13
2023-04-08T15:33:35.586Z,100259.25
2023-04-08T15:34:37.922Z,100262.11
2023-04-08T15:35:40.355Z,100259.36
2023-04-08T15:36:44.397Z,100257.43
2023-04-08T15:37:46.734Z,100261.11
2023-04-08T15:38:49.317Z,100259.19
2023-04-08T15:39:53.220Z,100254.61
2023-04-08T15:40:57.154Z,100257.34
2023-04-08T15:42:01.114Z,100258.66
2023-04-08T15:43:03.442Z,100255.78
2023-04-08T15:44:05.948Z,100260.95
2023-04-08T15:45:10.008Z,100262.80
2023-04-08T15:46:12.320Z,100265.85
2023-04-08T15:47:16.348Z,100268.04
2023-04-08T15:48:20.262Z,100266.59
2023-04-08T15:49:22.528Z,100268.48
2023-04-08T15:50:27.615Z,100270.92
2023-04-08T15:51:29.842Z,100269.98
2023-04-08T15:52:32.309Z,100275.50
2023-04-08T15:53:34.724Z,100276.52
2023-04-08T15:54:37.204Z,100274.84
2023-04-08T15:55:39.625Z,100277.52
2023-04-08T15:56:42.075Z,100278.33
2023-04-08T15:57:44.533Z,100278.64
2023-04-08T15:58:48.625Z,100281.09
2023-04-08T15:59:50.876Z,100284.26
2023-04-08T16:00:54.924Z,100283.05
2023-04-08T16:01:57.318Z,100282.33
2023-04-08T16:02:59.841Z,100280.39
2023-04-08T16:04:02.169Z,100281.80
2023-04-08T16:05:04.609Z,100275.81
2023-04-08T16:06:07.048Z,100281.13
2023-04-08T16:07:09.480Z,100279.89
2023-04-08T16:08:11.960Z,100283.09
2023-04-08T16:09:15.937Z,100283.92
2023-04-08T16:10:18.276Z,100284.16
2023-04-08T16:11:20.721Z,100288.77
2023-04-08T16:12:23.186Z,100288.75
2023-04-08T16:13:25.600Z,100287.95
2023-04-08T16:14:29.675Z,100287.74
2023-04-08T16:15:32.029Z,100293.14
2023-04-08T16:16:34.491Z,100292.67
2023-04-08T16:17:37.007Z,100292.11
2023-04-08T16:18:39.381Z,100291.84
2023-04-08T16:19:43.474Z,100289.38
2023-04-08T16:20:45.852Z,100288.20
2023-04-08T16:21:48.590Z,100287.98
2023-04-08T16:22:52.324Z,100290.91
2023-04-08T16:23:54.665Z,100292.20
2023-04-08T16:24:57.119Z,100290.58
2023-04-08T16:26:01.194Z,100297.22
2023-04-08T16:27:05.149Z,100293.83
2023-04-08T16:28:09.053Z,100294.67
2023-04-08T16:29:11.349Z,100297.00
2023-04-08T16:30:13.763Z,100294.33
2023-04-08T16:31:18.776Z,100293.74
2023-04-08T16:32:21.795Z,100291.43
2023-04-08T16:33:24.119Z,100289.88
2023-04-08T16:34:26.554Z,100290.25
2023-04-08T16:35:28.980Z,100290.56
2023-04-08T16:36:31.460Z,100294.56
2023-04-08T16:37:33.882Z,100294.02
2023-04-08T16:38:36.311Z,100295.53
2023-04-08T16:39:38.746Z,100294.80
2023-04-08T16:40:41.228Z,100298.30
2023-04-08T16:41:43.721Z,100300.69
2023-04-08T16:42:46.077Z,100294.19
2023-04-08T16:43:48.644Z,100295.72
2023-04-08T16:44:52.589Z,100297.12
2023-04-08T16:45:54.950Z,100297.20
2023-04-08T16:46:58.937Z,100298.97
2023-04-08T16:48:01.399Z,100299.82
2023-04-08T16:49:06.315Z,100299.98
2023-04-08T16:50:08.654Z,100304.70
2023-04-08T16:51:11.075Z,100304.13
2023-04-08T16:52:13.516Z,100305.71
2023-04-08T16:53:17.506Z,100304.70
2023-04-08T16:54:19.958Z,100302.23
2023-04-08T16:55:22.402Z,100304.66
2023-04-08T16:56:24.929Z,100305.22
2023-04-08T16:57:27.286Z,100308.64
2023-04-08T16:58:29.750Z,100307.33
2023-04-08T16:59:32.203Z,100307.05
2023-04-08T17:00:34.612Z,100302.58
2023-04-08T17:01:37.034Z,100308.49
2023-04-08T17:02:39.586Z,100304.17
2023-04-08T17:03:43.563Z,100308.54
2023-04-08T17:04:47.432Z,100309.85
2023-04-08T17:05:49.716Z,100308.06
2023-04-08T17:06:53.160Z,100311.66
2023-04-08T17:07:57.016Z,100313.05
2023-04-08T17:09:00.959Z,100310.41
2023-04-08T17:10:03.333Z,100307.07
2023-04-08T17:11:05.719Z,100310.13
2023-04-08T17:12:09.730Z,100314.75
2023-04-08T17:13:14.848Z,100310.54
2023-04-08T17:14:16.069Z,100312.49
2023-04-08T17:15:18.506Z,100313.77
2023-04-08T17:16:21.059Z,100310.73
2023-04-08T17:17:23.469Z,100311.65
2023-04-08T17:18:29.665Z,100315.95
2023-04-08T17:19:33.475Z,100314.86
2023-04-08T17:20:37.300Z,100318.08
2023-04-08T17:21:39.647Z,100317.73
2023-04-08T17:22:42.062Z,100316.95
2023-04-08T17:23:44.509Z,100316.20
2023-04-08T17:24:48.068Z,100317.40
2023-04-08T17:25:52.083Z,100317.06
2023-04-08T17:26:55.989Z,100319.30
2023-04-08T17:27:59.950Z,100320.63
2023-04-08T17:29:02.202Z,100320.76
2023-04-08T17:30:04.640Z,100322.09
2023-04-08T17:31:08.622Z,100322.85
2023-04-08T17:32:10.985Z,100323.91
2023-04-08T17:33:13.433Z,100323.56
2023-04-08T17:34:15.861Z,100329.33
2023-04-08T17:35:19.922Z,100326.28
2023-04-08T17:36:23.796Z,100324.91
2023-04-08T17:37:29.755Z,100328.37
2023-04-08T17:38:31.985Z,100334.45
2023-04-08T17:39:34.442Z,100338.20
2023-04-08T17:40:36.846Z,100333.39
2023-04-08T17:41:40.671Z,100332.43
2023-04-08T17:42:41.675Z,100334.19
2023-04-08T17:43:44.140Z,100331.81
2023-04-08T17:44:48.208Z,100331.92
2023-04-08T17:45:52.124Z,100335.70
2023-04-08T17:46:56.016Z,100334.98
2023-04-08T17:47:58.338Z,100333.94
2023-04-08T17:49:00.724Z,100334.02
2023-04-08T17:50:03.154Z,100333.25
2023-04-08T17:51:07.160Z,100335.48
2023-04-08T17:52:11.054Z,100338.12
2023-04-08T17:53:13.406Z,100341.16
2023-04-08T17:54:15.852Z,100339.36
2023-04-08T17:55:18.234Z,100342.66
2023-04-08T17:56:20.719Z,100344.69
2023-04-08T17:57:24.755Z,100339.64
2023-04-08T18:06:56.710Z,100346.98
2023-04-08T18:08:00.669Z,100351.27
2023-04-08T18:17:31.518Z,100360.70
2023-04-08T18:27:05.544Z,100368.40
2023-04-08T18:28:08.020Z,100369.88
2023-04-08T18:37:41.545Z,100374.70
2023-04-08T18:38:44.044Z,100373.20
2023-04-08T18:48:17.363Z,100389.22
2023-04-08T18:57:51.345Z,100396.28
2023-04-08T19:07:25.759Z,100394.45
2023-04-08T19:17:02.424Z,100401.97
2023-04-08T19:26:35.130Z,100408.41
2023-04-08T19:36:07.430Z,100414.55
2023-04-08T19:45:43.122Z,100411.98
2023-04-08T19:55:15.517Z,100420.64
2023-04-08T20:04:49.997Z,100423.48
2023-04-08T20:14:23.904Z,100424.28
2023-04-08T20:23:59.938Z,100423.66
2023-04-08T20:33:32.286Z,100428.98
2023-04-08T20:43:09.292Z,100426.64
2023-04-08T20:52:40.454Z,100447.08
2023-04-08T21:02:14.533Z,100439.14
2023-04-08T21:11:48.644Z,100446.22
2023-04-08T21:21:23.617Z,100441.75
2023-04-08T21:30:56.024Z,100437.44
2023-04-08T21:40:29.889Z,100442.59
2023-04-08T21:50:03.754Z,100446.00
2023-04-08T21:59:38.168Z,100442.30
2023-04-08T22:09:13.709Z,100450.14
2023-04-08T22:18:45.653Z,100444.98
2023-04-08T22:28:19.079Z,100437.22
2023-04-08T22:37:52.926Z,100438.94
2023-04-08T22:47:28.349Z,100443.06
2023-04-08T22:57:02.118Z,100447.28
2023-04-08T23:06:34.035Z,100447.73
2023-04-08T23:16:09.732Z,100439.94
2023-04-08T23:25:43.553Z,100447.19
2023-04-08T23:35:15.497Z,100448.48
2023-04-08T23:44:49.617Z,100447.28
2023-04-08T23:54:25.524Z,100446.08
